Time;durP1;ratioP1;P1;durP2;ratioP2;P2;SDS_P1;SDS_P2;PMS_P1;PMS_P2;Temp;Humidity;BMP_temperature;BMP_pressure;BME280_temperature;BME280_humidity;BME280_pressure;Samples;Min_cycle;Max_cycle;Signal;HPM_P1;HPM_P2
2021/01/09 00:02:05;;;;;;;5.93;3.80;;;;;;;19.46;39.33;100406.56;5049691;28;20479;-72
2021/01/09 00:04:30;;;;;;;5.68;3.47;;;;;;;19.46;39.38;100400.44;5048864;28;20532;-74
2021/01/09 00:06:55;;;;;;;5.07;3.65;;;;;;;19.46;39.15;100397.81;5049170;28;20041;-74
2021/01/09 00:09:21;;;;;;;5.05;3.40;;;;;;;19.46;39.17;100397.81;5036854;28;20053;-72
2021/01/09 00:11:46;;;;;;;5.85;3.53;;;;;;;19.48;39.36;100403.88;5029437;28;20053;-77
2021/01/09 00:14:11;;;;;;;6.47;3.92;;;;;;;19.49;39.26;100408.25;5029519;28;20045;-73
2021/01/09 00:16:37;;;;;;;5.25;3.38;;;;;;;19.47;39.09;100416.19;5029259;28;20041;-73
2021/01/09 00:19:03;;;;;;;4.55;3.35;;;;;;;19.45;39.23;100411.84;5033763;28;20409;-73
2021/01/09 00:21:36;;;;;;;7.07;3.80;;;;;;;19.43;39.48;100419.72;5047490;28;20041;-73
2021/01/09 00:24:04;;;;;;;5.72;3.47;;;;;;;19.42;39.09;100415.38;5048919;28;20570;-76
2021/01/09 00:26:29;;;;;;;3.97;3.03;;;;;;;19.43;39.30;100421.50;5049318;28;20115;-75
2021/01/09 00:28:55;;;;;;;5.78;3.40;;;;;;;19.44;39.18;100428.50;5048825;28;20132;-73
2021/01/09 00:31:21;;;;;;;4.50;3.22;;;;;;;19.44;39.21;100426.72;5048691;28;20379;-76
2021/01/09 00:33:47;;;;;;;4.93;3.58;;;;;;;19.46;39.25;100437.25;5048509;28;20427;-73
2021/01/09 00:36:12;;;;;;;5.05;3.15;;;;;;;19.44;39.35;100433.75;5049242;28;20041;-76
2021/01/09 00:38:38;;;;;;;4.90;3.35;;;;;;;19.44;39.31;100434.63;5049023;28;20041;-72
2021/01/09 00:41:03;;;;;;;4.68;3.05;;;;;;;19.45;39.25;100443.38;5051897;28;20067;-72
2021/01/09 00:43:28;;;;;;;4.90;3.03;;;;;;;19.43;39.06;100435.50;5052718;28;20521;-76
2021/01/09 00:45:54;;;;;;;4.50;3.05;;;;;;;19.43;39.46;100435.50;5052531;28;20035;-75
2021/01/09 00:48:19;;;;;;;3.92;2.88;;;;;;;19.46;38.83;100455.63;5052549;28;20144;-73
2021/01/09 00:50:46;;;;;;;5.45;3.40;;;;;;;19.44;39.23;100463.53;5038257;28;20041;-77
2021/01/09 00:53:11;;;;;;;4.07;2.83;;;;;;;19.44;39.24;100455.63;5032461;28;20034;-74
2021/01/09 00:55:37;;;;;;;5.10;3.50;;;;;;;19.45;39.31;100453.91;5032498;28;20033;-72
2021/01/09 00:58:02;;;;;;;4.55;2.80;;;;;;;19.45;39.02;100449.50;5032726;28;20029;-73
2021/01/09 01:00:27;;;;;;;5.25;3.25;;;;;;;19.44;39.05;100452.16;5032242;28;21351;-73
2021/01/09 01:02:53;;;;;;;3.95;3.38;;;;;;;19.42;38.88;100449.53;5032344;28;20046;-73
2021/01/09 01:05:18;;;;;;;5.63;3.17;;;;;;;19.42;39.12;100449.53;5032411;28;20044;-73
2021/01/09 01:07:44;;;;;;;3.97;2.90;;;;;;;19.42;38.93;100446.91;5032619;28;20033;-77
2021/01/09 01:10:10;;;;;;;5.60;3.00;;;;;;;19.41;39.00;100453.03;5032023;28;20124;-74
2021/01/09 01:12:36;;;;;;;4.70;3.05;;;;;;;19.42;39.03;100444.28;5032398;28;20041;-72
2021/01/09 01:15:02;;;;;;;4.90;3.30;;;;;;;19.40;38.90;100447.81;5032075;28;20048;-74
2021/01/09 01:17:28;;;;;;;5.13;2.92;;;;;;;19.41;39.16;100463.56;5032027;28;20037;-77
2021/01/09 01:19:53;;;;;;;4.03;2.63;;;;;;;19.40;39.04;100467.06;5059124;28;20112;-72
2021/01/09 01:22:19;;;;;;;5.28;3.85;;;;;;;19.41;38.86;100474.06;5051862;28;20116;-72
2021/01/09 01:24:44;;;;;;;4.07;3.28;;;;;;;19.41;38.83;100476.69;5052573;28;20438;-72
2021/01/09 01:27:09;;;;;;;3.88;2.65;;;;;;;19.41;39.06;100470.59;5052024;28;20025;-75
2021/01/09 01:29:34;;;;;;;4.50;3.15;;;;;;;19.41;39.24;100474.06;5051593;28;20524;-73
2021/01/09 01:32:00;;;;;;;3.88;3.03;;;;;;;19.38;39.00;100479.41;5052308;28;20136;-72
2021/01/09 01:34:25;;;;;;;4.60;3.05;;;;;;;19.37;38.93;100490.78;5051665;28;20037;-72
2021/01/09 01:36:51;;;;;;;3.60;2.80;;;;;;;19.38;39.07;100492.53;5051765;28;20498;-73
2021/01/09 01:39:18;;;;;;;4.43;2.97;;;;;;;19.38;39.07;100489.91;5050343;28;20039;-74
2021/01/09 01:41:43;;;;;;;4.75;3.33;;;;;;;19.35;38.86;100482.06;5051779;28;20032;-73
2021/01/09 01:44:09;;;;;;;4.63;2.78;;;;;;;19.36;39.11;100485.53;5051538;28;20040;-74
2021/01/09 01:46:34;;;;;;;4.90;3.08;;;;;;;19.37;39.03;100492.53;5051581;28;20477;-76
2021/01/09 01:49:00;;;;;;;5.30;2.67;;;;;;;19.36;38.96;100496.94;5051016;28;20087;-75
2021/01/09 01:51:25;;;;;;;3.72;2.63;;;;;;;19.37;38.88;100497.78;5047769;28;20035;-75
2021/01/09 01:53:54;;;;;;;4.32;2.75;;;;;;;19.37;38.74;100493.44;5051428;28;20441;-73
2021/01/09 01:56:20;;;;;;;4.03;2.70;;;;;;;19.38;39.07;100496.91;5051427;28;20029;-73
2021/01/09 01:58:45;;;;;;;3.85;2.63;;;;;;;19.38;38.97;100497.78;5051168;28;20533;-72
2021/01/09 02:01:15;;;;;;;3.90;2.53;;;;;;;19.37;38.95;100496.06;5049950;28;20091;-73
2021/01/09 02:03:40;;;;;;;4.63;2.80;;;;;;;19.38;39.08;100489.03;5050950;28;20120;-73
2021/01/09 02:06:12;;;;;;;4.10;2.83;;;;;;;19.39;38.78;100498.66;5050062;28;20644;-73
2021/01/09 02:09:02;;;;;;;3.75;2.70;;;;;;;19.38;38.73;100500.41;5059796;28;20123;-72
2021/01/09 02:11:44;;;;;;;4.68;3.22;;;;;;;19.37;38.95;100492.53;5031443;28;20034;-72
2021/01/09 02:14:17;;;;;;;4.00;2.80;;;;;;;19.39;38.54;100496.88;5030927;28;20048;-73
2021/01/09 02:16:43;;;;;;;4.65;3.40;;;;;;;19.38;38.84;100497.78;5031159;28;20037;-73
2021/01/09 02:19:10;;;;;;;4.05;2.65;;;;;;;19.38;38.91;100494.28;5037859;28;20079;-76
2021/01/09 02:21:42;;;;;;;3.55;2.65;;;;;;;19.37;38.63;100492.53;5050856;28;20036;-75
2021/01/09 02:24:15;;;;;;;3.85;2.35;;;;;;;19.38;38.86;100492.53;5050774;28;20547;-76
2021/01/09 02:26:41;;;;;;;4.13;2.90;;;;;;;19.38;39.02;100491.66;5051057;28;20086;-77
2021/01/09 02:29:06;;;;;;;3.60;2.60;;;;;;;19.38;38.87;100489.03;5050498;28;20044;-72
2021/01/09 02:31:49;;;;;;;3.85;2.55;;;;;;;19.37;38.55;100492.53;5051025;28;20296;-72
2021/01/09 02:34:16;;;;;;;3.40;2.63;;;;;;;19.38;39.00;100494.28;5050576;28;20033;-72
2021/01/09 02:36:42;;;;;;;4.47;2.88;;;;;;;19.37;38.82;100492.53;5050816;28;20036;-76
2021/01/09 02:39:08;;;;;;;3.50;2.60;;;;;;;19.37;38.76;100487.28;5050392;28;20041;-73
2021/01/09 02:41:35;;;;;;;3.33;2.70;;;;;;;19.36;38.80;100502.19;5050662;28;20089;-72
2021/01/09 02:44:09;;;;;;;3.33;2.67;;;;;;;19.36;38.95;100502.19;5050455;28;20551;-72
2021/01/09 02:46:35;;;;;;;4.35;2.75;;;;;;;19.37;38.86;100497.78;5050649;28;20036;-75
2021/01/09 02:49:01;;;;;;;3.20;2.45;;;;;;;19.37;38.75;100496.06;5049910;28;20068;-77
2021/01/09 02:51:26;;;;;;;3.83;3.05;;;;;;;19.36;38.76;100499.56;5050292;28;20064;-72
2021/01/09 02:53:51;;;;;;;3.72;2.70;;;;;;;19.35;38.90;100494.31;5050351;28;20482;-74
2021/01/09 02:56:17;;;;;;;3.72;2.83;;;;;;;19.36;38.69;100498.69;5050726;28;20041;-72
2021/01/09 02:58:42;;;;;;;3.70;2.88;;;;;;;19.34;38.79;100496.09;5049997;28;20037;-73
2021/01/09 03:01:07;;;;;;;3.53;2.60;;;;;;;19.35;38.90;100503.09;5050574;28;20130;-76
2021/01/09 03:03:33;;;;;;;3.78;2.70;;;;;;;19.34;38.69;100503.97;5049752;28;20048;-72
2021/01/09 03:05:58;;;;;;;3.42;2.58;;;;;;;19.33;38.77;100508.34;5065685;28;20123;-75
2021/01/09 03:08:23;;;;;;;3.70;2.40;;;;;;;19.35;38.69;100513.59;5045516;28;20035;-76
2021/01/09 03:10:49;;;;;;;3.58;2.80;;;;;;;19.35;38.60;100504.81;5028907;28;20033;-73
2021/01/09 03:13:15;;;;;;;3.40;2.72;;;;;;;19.35;38.49;100508.34;5029843;28;20045;-73
2021/01/09 03:15:40;;;;;;;3.70;2.67;;;;;;;19.35;38.63;100512.72;5030082;28;20410;-74
2021/01/09 03:18:05;;;;;;;4.00;2.90;;;;;;;19.34;38.74;100514.47;5030144;28;20041;-72
2021/01/09 03:20:31;;;;;;;3.08;2.40;;;;;;;19.36;38.75;100514.44;5047217;28;20406;-74
2021/01/09 03:22:56;;;;;;;3.72;3.15;;;;;;;19.36;38.65;100511.81;5049589;28;20426;-73
2021/01/09 03:25:21;;;;;;;3.78;2.88;;;;;;;19.35;38.96;100504.81;5049939;28;20116;-73
2021/01/09 03:27:47;;;;;;;3.97;3.00;;;;;;;19.35;38.76;100504.81;5049479;28;20400;-75
2021/01/09 03:30:13;;;;;;;3.75;2.70;;;;;;;19.34;38.81;100506.59;5049540;28;20560;-73
2021/01/09 03:32:38;;;;;;;3.90;2.72;;;;;;;19.35;38.62;100504.81;5049481;28;20044;-74
2021/01/09 03:35:04;;;;;;;3.72;2.78;;;;;;;19.36;38.57;100493.44;5049733;28;20065;-72
2021/01/09 03:37:29;;;;;;;3.72;2.72;;;;;;;19.33;38.86;100492.56;5048278;28;20029;-72
2021/01/09 03:39:55;;;;;;;3.08;2.50;;;;;;;19.33;38.80;100495.19;5049435;28;20056;-72
2021/01/09 03:42:20;;;;;;;3.45;2.95;;;;;;;19.35;38.64;100496.94;5049598;28;20108;-73
2021/01/09 03:44:45;;;;;;;3.63;2.78;;;;;;;19.34;38.68;100503.97;5048213;28;20128;-72
2021/01/09 03:47:10;;;;;;;4.05;2.88;;;;;;;19.35;38.51;100507.44;5049209;28;20127;-74
2021/01/09 03:49:36;;;;;;;3.45;2.70;;;;;;;19.35;38.76;100504.81;5044565;28;20043;-72
2021/01/09 03:52:01;;;;;;;3.95;2.78;;;;;;;19.35;38.67;100508.34;5029584;28;20034;-72
2021/01/09 03:54:27;;;;;;;3.78;2.90;;;;;;;19.34;38.67;100498.72;5029252;28;20018;-74
2021/01/09 03:56:52;;;;;;;3.50;2.70;;;;;;;19.35;38.73;100510.97;5029390;28;20112;-73
2021/01/09 03:59:17;;;;;;;4.13;3.00;;;;;;;19.34;38.51;100503.97;5029882;28;20030;-76
2021/01/09 04:01:43;;;;;;;3.58;2.72;;;;;;;19.33;38.81;100508.34;5029131;28;20033;-75
2021/01/09 04:04:10;;;;;;;3.80;3.03;;;;;;;19.32;38.64;100514.47;5029517;28;20084;-73
2021/01/09 04:06:36;;;;;;;3.58;2.75;;;;;;;19.33;38.69;100513.59;5029708;28;20067;-73
2021/01/09 04:09:01;;;;;;;4.97;2.78;;;;;;;19.33;38.62;100526.72;5029154;28;20061;-77
2021/01/09 04:11:26;;;;;;;3.25;2.60;;;;;;;19.33;38.69;100518.00;5029428;28;20052;-72
2021/01/09 04:13:54;;;;;;;3.67;2.95;;;;;;;19.33;38.50;100518.00;5029433;28;20026;-73
2021/01/09 04:16:19;;;;;;;4.22;3.25;;;;;;;19.31;38.90;100515.38;5033116;28;20033;-72
2021/01/09 04:18:45;;;;;;;3.83;2.90;;;;;;;19.33;38.63;100520.63;5035802;28;20386;-76
2021/01/09 04:21:12;;;;;;;3.45;2.85;;;;;;;19.33;38.56;100523.25;5051719;28;20464;-75
2021/01/09 04:23:37;;;;;;;4.30;2.70;;;;;;;19.33;38.35;100525.88;5052894;28;20115;-76
2021/01/09 04:26:03;;;;;;;3.72;3.22;;;;;;;19.33;38.40;100518.84;5053343;28;20036;-73
2021/01/09 04:28:28;;;;;;;3.80;2.80;;;;;;;19.35;38.67;100520.59;5053162;28;20036;-77
2021/01/09 04:30:54;;;;;;;3.95;2.63;;;;;;;19.31;38.57;100528.50;5053175;28;20036;-73
2021/01/09 04:33:19;;;;;;;3.60;2.85;;;;;;;19.33;38.58;100525.88;5052709;28;20033;-73
2021/01/09 04:35:44;;;;;;;3.58;2.90;;;;;;;19.34;38.64;100527.63;5053151;28;20037;-73
2021/01/09 04:38:10;;;;;;;3.60;2.85;;;;;;;19.33;38.73;100520.63;5051501;28;20067;-74
2021/01/09 04:40:36;;;;;;;3.63;2.70;;;;;;;19.33;38.37;100523.25;5053055;28;20037;-75
2021/01/09 04:43:01;;;;;;;4.07;3.00;;;;;;;19.33;38.42;100531.13;5051502;28;20052;-73
2021/01/09 04:45:27;;;;;;;3.65;2.72;;;;;;;19.33;38.55;100533.75;5052757;28;20036;-73
2021/01/09 04:47:54;;;;;;;3.88;2.90;;;;;;;19.33;38.51;100536.38;5051390;28;20060;-76
2021/01/09 04:50:20;;;;;;;4.65;3.17;;;;;;;19.34;38.49;100543.38;5041873;28;20061;-75
2021/01/09 04:52:46;;;;;;;3.15;2.70;;;;;;;19.33;38.40;100546.91;5032221;28;20033;-73
2021/01/09 04:55:11;;;;;;;3.58;2.85;;;;;;;19.33;38.54;100544.28;5032619;28;20083;-72
2021/01/09 04:57:37;;;;;;;3.47;2.72;;;;;;;19.32;38.51;100539.91;5048028;28;20494;-77
2021/01/09 05:00:05;;;;;;;3.55;2.58;;;;;;;19.32;38.50;100547.78;5032815;28;20466;-72
2021/01/09 05:02:33;;;;;;;3.70;2.70;;;;;;;19.32;38.79;100547.78;5032135;28;20115;-76
2021/01/09 05:04:58;;;;;;;4.40;2.85;;;;;;;19.32;38.31;100556.53;5032361;28;20041;-72
2021/01/09 05:07:23;;;;;;;3.83;2.70;;;;;;;19.32;38.51;100555.66;5032314;28;20033;-75
2021/01/09 05:09:49;;;;;;;4.32;2.85;;;;;;;19.32;38.55;100555.66;5032220;28;20029;-76
2021/01/09 05:12:16;;;;;;;3.13;2.38;;;;;;;19.32;38.46;100555.66;5032314;28;20044;-72
2021/01/09 05:14:42;;;;;;;4.13;2.95;;;;;;;19.31;38.83;100553.94;5032444;28;20080;-73
2021/01/09 05:17:07;;;;;;;3.47;2.58;;;;;;;19.31;38.51;100553.94;5032283;28;20065;-74
2021/01/09 05:19:33;;;;;;;3.75;2.65;;;;;;;19.31;38.56;100544.28;5041078;28;20464;-73
2021/01/09 05:22:02;;;;;;;4.55;2.83;;;;;;;19.31;38.46;100549.53;5051915;28;20041;-74
2021/01/09 05:24:28;;;;;;;3.15;2.53;;;;;;;19.32;38.49;100563.56;5051962;28;20048;-72
2021/01/09 05:26:54;;;;;;;4.03;2.78;;;;;;;19.32;38.35;100555.66;5052156;28;20045;-73
2021/01/09 05:29:20;;;;;;;2.70;2.30;;;;;;;19.31;38.49;100554.78;5051929;28;20111;-75
2021/01/09 05:31:46;;;;;;;3.53;2.53;;;;;;;19.32;38.45;100553.91;5051724;28;20050;-73
2021/01/09 05:34:12;;;;;;;3.85;2.80;;;;;;;19.31;38.56;100556.56;5051717;28;20037;-73
2021/01/09 05:36:39;;;;;;;3.90;2.72;;;;;;;19.31;38.30;100557.41;5051669;28;20036;-75
2021/01/09 05:39:04;;;;;;;3.33;2.40;;;;;;;19.32;38.54;100555.66;5051897;28;20040;-75
2021/01/09 05:41:30;;;;;;;3.45;2.70;;;;;;;19.31;38.54;100557.41;5051744;28;20043;-74
2021/01/09 05:44:03;;;;;;;3.33;2.63;;;;;;;19.30;38.29;100547.81;5051623;28;20144;-73
2021/01/09 05:46:31;;;;;;;3.40;2.65;;;;;;;19.32;38.29;100555.66;5051715;28;20067;-72
2021/01/09 05:48:57;;;;;;;6.57;2.85;;;;;;;19.33;38.44;100552.16;5051498;28;20086;-72
2021/01/09 05:51:23;;;;;;;3.22;2.50;;;;;;;19.32;38.36;100564.41;5048714;28;20440;-74
2021/01/09 05:53:48;;;;;;;3.55;2.40;;;;;;;19.32;38.46;100568.81;5051322;28;20037;-73
2021/01/09 05:56:16;;;;;;;3.03;2.33;;;;;;;19.32;38.25;100574.06;5051473;28;20045;-75
2021/01/09 05:58:42;;;;;;;3.55;2.53;;;;;;;19.32;38.43;100574.06;5051487;28;20037;-73
2021/01/09 06:01:12;;;;;;;2.70;2.30;;;;;;;19.32;38.32;100580.19;5051137;28;20040;-72
2021/01/09 06:03:46;;;;;;;2.70;2.20;;;;;;;19.32;38.54;100574.91;5051298;28;20413;-72
2021/01/09 06:06:20;;;;;;;3.13;2.38;;;;;;;19.31;38.46;100578.44;5049888;28;20527;-72
2021/01/09 06:08:53;;;;;;;4.07;2.50;;;;;;;19.32;38.43;100581.94;5043779;28;20124;-73
2021/01/09 06:11:29;;;;;;;4.05;2.72;;;;;;;19.32;38.36;100581.94;5031273;28;20536;-73
2021/01/09 06:13:58;;;;;;;3.90;2.38;;;;;;;19.31;38.42;100578.44;5031331;28;20088;-73
2021/01/09 06:16:26;;;;;;;4.78;2.90;;;;;;;19.32;38.38;100580.19;5031136;28;20041;-73
2021/01/09 06:18:52;;;;;;;3.45;2.80;;;;;;;19.32;38.45;100585.44;5033303;28;20519;-72
2021/01/09 06:21:20;;;;;;;2.80;2.40;;;;;;;19.32;38.61;100585.44;5050853;28;20098;-76
2021/01/09 06:23:45;;;;;;;3.75;2.70;;;;;;;19.32;38.41;100587.19;5050988;28;20440;-72
2021/01/09 06:26:14;;;;;;;3.30;2.10;;;;;;;19.30;38.25;100589.88;5051196;28;20028;-75
2021/01/09 06:28:45;;;;;;;2.78;2.28;;;;;;;19.31;38.38;100602.09;5049699;28;20032;-73
2021/01/09 06:31:18;;;;;;;3.33;2.38;;;;;;;19.30;38.23;100602.13;5050883;28;20049;-75
2021/01/09 06:33:47;;;;;;;2.83;2.47;;;;;;;19.30;38.46;100594.22;5051074;28;20124;-76
2021/01/09 06:36:14;;;;;;;3.05;2.63;;;;;;;19.31;38.36;100603.84;5050658;28;20037;-73
2021/01/09 06:38:43;;;;;;;4.40;2.97;;;;;;;19.28;38.40;100594.25;5050403;28;20064;-74
2021/01/09 06:41:12;;;;;;;3.33;2.67;;;;;;;19.28;38.50;100599.50;5050484;28;20045;-73
2021/01/09 06:43:42;;;;;;;3.75;2.60;;;;;;;19.30;38.32;100599.47;5050751;28;20063;-77
2021/01/09 06:46:07;;;;;;;3.50;2.65;;;;;;;19.30;38.34;100607.38;5050548;28;20048;-73
2021/01/09 06:48:35;;;;;;;4.10;2.97;;;;;;;19.30;38.63;100604.75;5050195;28;20041;-73
2021/01/09 06:51:00;;;;;;;3.58;2.80;;;;;;;19.29;38.47;100605.63;5033865;28;20033;-74
2021/01/09 06:53:25;;;;;;;4.10;3.00;;;;;;;19.29;38.58;100606.50;5030295;28;20037;-72
2021/01/09 06:55:54;;;;;;;3.30;2.70;;;;;;;19.29;38.33;100611.78;5030611;28;20037;-72
2021/01/09 06:58:25;;;;;;;3.80;2.72;;;;;;;19.31;38.45;100607.34;5030480;28;20045;-72
2021/01/09 07:00:50;;;;;;;3.25;2.53;;;;;;;19.30;38.30;100613.50;5030363;28;20505;-72
2021/01/09 07:03:17;;;;;;;3.10;2.45;;;;;;;19.30;38.43;100608.25;5029975;28;20045;-73
2021/01/09 07:05:46;;;;;;;3.72;2.95;;;;;;;19.31;38.24;100614.38;5030496;28;20450;-73
2021/01/09 07:08:27;;;;;;;3.58;2.72;;;;;;;19.31;38.23;100609.97;5030336;28;20037;-72
2021/01/09 07:10:54;;;;;;;3.80;2.70;;;;;;;19.31;38.23;100607.34;5030205;28;20025;-76
2021/01/09 07:13:22;;;;;;;4.07;2.97;;;;;;;19.32;38.17;100605.59;5030281;28;20021;-72
2021/01/09 07:15:48;;;;;;;4.03;2.95;;;;;;;19.33;38.22;100613.44;5030100;28;20071;-75
2021/01/09 07:18:19;;;;;;;4.57;3.55;;;;;;;19.32;38.26;100618.75;5029836;28;20033;-74
2021/01/09 07:20:49;;;;;;;4.55;2.97;;;;;;;19.33;38.30;100621.34;5049149;28;20401;-72
2021/01/09 07:23:16;;;;;;;3.72;2.88;;;;;;;19.32;38.24;100624.00;5048448;28;20036;-73
2021/01/09 07:25:44;;;;;;;4.13;3.20;;;;;;;19.33;38.31;100617.84;5049770;28;20375;-73
2021/01/09 07:28:12;;;;;;;4.32;3.10;;;;;;;19.32;38.37;100627.47;5049608;28;20041;-74
2021/01/09 07:30:38;;;;;;;4.40;3.28;;;;;;;19.33;38.53;100621.34;5049795;28;20067;-75
2021/01/09 07:33:09;;;;;;;4.32;2.95;;;;;;;19.33;38.24;100629.22;5049187;28;20138;-73
2021/01/09 07:35:37;;;;;;;6.18;3.03;;;;;;;19.35;38.29;100625.72;5049685;28;20025;-75
2021/01/09 07:38:06;;;;;;;4.10;2.95;;;;;;;19.33;38.29;100633.63;5049756;28;20056;-73
2021/01/09 07:40:33;;;;;;;4.05;2.85;;;;;;;19.34;38.21;100638.00;5049957;28;20029;-74
2021/01/09 07:43:00;;;;;;;4.53;3.25;;;;;;;19.33;38.25;100649.38;5049793;28;20532;-72
2021/01/09 07:45:33;;;;;;;4.72;3.30;;;;;;;19.32;38.37;100648.50;5049567;28;20064;-74
2021/01/09 07:47:58;;;;;;;3.87;3.13;;;;;;;19.32;38.30;100652.91;5049680;28;20039;-73
2021/01/09 07:50:24;;;;;;;4.55;3.40;;;;;;;19.32;38.26;100651.13;5037238;28;20031;-77
2021/01/09 07:53:07;;;;;;;4.25;2.85;;;;;;;19.31;38.25;100653.78;5029498;28;20037;-75
2021/01/09 07:55:44;;;;;;;3.90;3.22;;;;;;;19.30;38.42;100654.66;5045025;28;20038;-74
2021/01/09 07:58:10;;;;;;;4.95;3.58;;;;;;;19.31;38.52;100648.53;5029743;28;20518;-72
2021/01/09 08:00:39;;;;;;;4.72;3.22;;;;;;;19.29;38.25;100663.44;5029338;28;20087;-74
2021/01/09 08:03:05;;;;;;;4.75;3.30;;;;;;;19.30;38.29;100663.44;5028973;28;20053;-75
2021/01/09 08:05:31;;;;;;;5.07;3.38;;;;;;;19.32;38.42;100655.53;5029532;28;20034;-75
2021/01/09 08:07:59;;;;;;;3.97;2.88;;;;;;;19.29;38.33;100658.19;5029401;28;20037;-74
2021/01/09 08:10:30;;;;;;;4.75;3.10;;;;;;;19.29;38.27;100664.31;5029730;28;20033;-74
2021/01/09 08:12:57;;;;;;;4.00;3.03;;;;;;;19.29;38.20;100664.31;5029359;28;20037;-74
2021/01/09 08:15:23;;;;;;;5.65;4.00;;;;;;;19.29;38.13;100664.31;5029333;28;20052;-75
2021/01/09 08:17:48;;;;;;;4.10;3.17;;;;;;;19.30;38.29;100668.69;5029288;28;20037;-75
2021/01/09 08:20:14;;;;;;;3.85;3.10;;;;;;;19.31;38.32;100677.44;5044011;28;20396;-72
2021/01/09 08:22:51;;;;;;;4.20;3.13;;;;;;;19.30;38.26;100678.31;5048898;28;20391;-72
2021/01/09 08:25:17;;;;;;;4.68;3.20;;;;;;;19.31;38.24;100683.53;5049365;28;20387;-74
2021/01/09 08:27:53;;;;;;;4.97;3.55;;;;;;;19.31;38.04;100685.31;5048096;28;20029;-78
2021/01/09 08:30:21;;;;;;;3.67;3.08;;;;;;;19.33;38.24;100686.19;5048778;28;20559;-75
2021/01/09 08:32:47;;;;;;;5.30;3.85;;;;;;;19.34;38.34;100701.06;5048116;28;20417;-78
2021/01/09 08:35:14;;;;;;;4.40;3.33;;;;;;;19.36;38.31;100698.41;5049379;28;20029;-75
2021/01/09 08:37:40;;;;;;;4.03;3.40;;;;;;;19.35;38.29;100696.66;5047883;28;20033;-75
2021/01/09 08:40:14;;;;;;;4.68;3.70;;;;;;;19.36;38.21;100695.78;5049144;28;20405;-74
2021/01/09 08:43:00;;;;;;;4.80;3.28;;;;;;;19.35;38.11;100696.66;5048889;28;20040;-75
2021/01/09 08:45:34;;;;;;;3.97;3.30;;;;;;;19.35;38.07;100701.91;5048516;28;20025;-75
2021/01/09 08:48:01;;;;;;;4.20;3.30;;;;;;;19.34;38.42;100698.44;5048878;28;20043;-74
2021/01/09 08:50:29;;;;;;;4.82;3.35;;;;;;;19.38;38.14;100701.88;5037514;28;20551;-75
2021/01/09 08:53:01;;;;;;;5.70;3.58;;;;;;;19.37;38.22;100713.28;5028644;28;20061;-75
2021/01/09 08:55:28;;;;;;;4.90;3.70;;;;;;;19.36;38.06;100707.19;5029155;28;20061;-73
2021/01/09 08:57:54;;;;;;;4.18;3.17;;;;;;;19.37;38.16;100708.03;5029072;28;20083;-74
2021/01/09 09:00:21;;;;;;;5.40;4.05;;;;;;;19.38;38.26;100699.25;5028960;28;20112;-74
2021/01/09 09:02:48;;;;;;;4.75;3.28;;;;;;;19.38;38.25;100705.41;5032457;28;20049;-75
2021/01/09 09:05:14;;;;;;;5.95;3.50;;;;;;;19.39;38.26;100716.78;5032608;28;20044;-73
2021/01/09 09:07:41;;;;;;;4.32;3.38;;;;;;;19.39;38.19;100714.16;5032617;28;20034;-73
2021/01/09 09:10:08;;;;;;;4.88;4.03;;;;;;;19.40;37.93;100718.53;5032417;28;20037;-74
2021/01/09 09:12:33;;;;;;;4.18;2.95;;;;;;;19.39;38.34;100716.78;5032577;28;20044;-73
2021/01/09 09:15:00;;;;;;;5.82;3.55;;;;;;;19.41;38.38;100721.13;5031352;28;20029;-75
2021/01/09 09:17:25;;;;;;;5.07;3.40;;;;;;;19.40;38.25;100716.75;5029379;28;20079;-72
2021/01/09 09:19:51;;;;;;;4.32;3.20;;;;;;;19.43;38.49;100715.88;5041621;28;20037;-75
2021/01/09 09:22:27;;;;;;;4.75;3.83;;;;;;;19.42;38.32;100720.22;5051544;28;20064;-74
2021/01/09 09:24:52;;;;;;;5.38;3.47;;;;;;;19.41;38.28;100718.50;5051901;28;20469;-72
2021/01/09 09:27:25;;;;;;;6.25;3.72;;;;;;;19.44;38.25;100726.34;5051845;28;20100;-73
2021/01/09 09:30:10;;;;;;;8.38;4.07;;;;;;;19.43;38.16;100729.00;5051624;28;20563;-76
2021/01/09 09:32:37;;;;;;;5.35;3.50;;;;;;;19.46;38.28;100731.63;5051736;28;20064;-73
2021/01/09 09:35:20;;;;;;;6.43;4.25;;;;;;;19.47;38.23;100734.22;5051978;28;20066;-74
2021/01/09 09:37:47;;;;;;;4.53;3.53;;;;;;;19.52;38.47;100734.16;5051989;28;20036;-74
2021/01/09 09:40:27;;;;;;;8.02;3.92;;;;;;;19.57;37.74;100737.63;5052152;28;20037;-72
2021/01/09 09:42:53;;;;;;;10.07;4.30;;;;;;;19.61;38.30;100741.97;5051791;28;20451;-73
2021/01/09 09:45:19;;;;;;;6.03;3.78;;;;;;;19.64;38.22;100733.16;5051567;28;20124;-73
2021/01/09 09:47:47;;;;;;;10.02;4.22;;;;;;;19.66;38.39;100741.91;5051671;28;20105;-73
2021/01/09 09:50:13;;;;;;;9.73;4.00;;;;;;;19.69;38.37;100735.75;5041838;28;20087;-74
2021/01/09 09:52:39;;;;;;;7.47;4.65;;;;;;;19.70;38.45;100742.75;5031588;28;20033;-74
2021/01/09 09:55:06;;;;;;;5.90;4.25;;;;;;;19.71;38.40;100747.97;5030378;28;20526;-75
2021/01/09 09:57:32;;;;;;;4.28;3.28;;;;;;;19.74;38.58;100747.09;5031470;28;20128;-76
2021/01/09 10:00:12;;;;;;;6.20;4.68;;;;;;;19.75;38.51;100756.72;5031368;28;20509;-73
2021/01/09 10:02:51;;;;;;;20.77;4.28;;;;;;;19.76;38.52;100746.19;5030212;28;20383;-73
2021/01/09 10:05:16;;;;;;;6.93;4.68;;;;;;;19.81;38.68;100750.53;5031124;28;20033;-73
2021/01/09 10:07:41;;;;;;;5.57;3.88;;;;;;;19.81;38.71;100754.00;5031561;28;20033;-75
2021/01/09 10:10:20;;;;;;;4.85;3.88;;;;;;;19.82;38.63;100758.38;5031170;28;20034;-73
2021/01/09 10:12:56;;;;;;;5.22;4.15;;;;;;;19.83;38.47;100757.50;5042583;28;20045;-76
2021/01/09 10:15:21;;;;;;;5.85;4.60;;;;;;;19.83;38.60;100760.13;5051349;28;20515;-74
2021/01/09 10:17:57;;;;;;;6.18;4.47;;;;;;;19.83;38.67;100764.53;5044694;28;20033;-74
2021/01/09 10:20:23;;;;;;;6.53;4.07;;;;;;;19.82;38.66;100763.66;5048848;28;20039;-75
2021/01/09 10:22:49;;;;;;;6.63;4.85;;;;;;;19.81;38.65;100759.28;5050953;28;20051;-74
2021/01/09 10:25:14;;;;;;;5.18;4.30;;;;;;;19.81;38.52;100767.16;5051123;28;20501;-72
2021/01/09 10:27:39;;;;;;;5.70;4.65;;;;;;;19.79;38.77;100763.69;5050642;28;20039;-72
2021/01/09 10:30:06;;;;;;;6.50;4.30;;;;;;;19.77;38.60;100763.69;5050928;28;20455;-74
2021/01/09 10:32:31;;;;;;;6.05;4.53;;;;;;;19.77;38.66;100760.22;5042903;28;20060;-76
2021/01/09 10:34:56;;;;;;;6.80;4.50;;;;;;;19.80;38.68;100761.94;5030990;28;20072;-73
2021/01/09 10:37:22;;;;;;;5.45;4.40;;;;;;;19.77;38.91;100760.22;5035510;28;20512;-76
2021/01/09 10:39:47;;;;;;;6.72;4.75;;;;;;;19.77;38.56;100755.81;5046391;28;20033;-73
2021/01/09 10:42:13;;;;;;;7.45;4.25;;;;;;;19.80;38.65;100760.16;5038293;28;20025;-72
2021/01/09 10:44:39;;;;;;;8.10;4.85;;;;;;;19.77;38.71;100753.19;5050204;28;20056;-79
2021/01/09 10:47:04;;;;;;;6.60;4.68;;;;;;;19.76;38.41;100754.06;5050599;28;20090;-73
2021/01/09 10:49:29;;;;;;;8.52;4.75;;;;;;;19.76;38.81;100754.06;5048896;28;20037;-73
2021/01/09 10:51:55;;;;;;;11.43;6.10;;;;;;;19.73;38.76;100759.34;5050610;28;20116;-75
2021/01/09 10:54:20;;;;;;;8.43;5.43;;;;;;;19.72;38.61;100759.38;5049998;28;20116;-73
2021/01/09 10:56:46;;;;;;;14.88;5.45;;;;;;;19.69;38.72;100765.56;5065520;28;20040;-77
2021/01/09 10:59:12;;;;;;;11.98;5.68;;;;;;;19.70;38.93;100756.75;5041476;28;20073;-75
2021/01/09 11:01:37;;;;;;;7.43;5.30;;;;;;;19.68;38.66;100755.94;5042142;28;20879;-74
2021/01/09 11:04:03;;;;;;;9.73;5.22;;;;;;;19.67;38.64;100750.66;5050176;28;20040;-73
2021/01/09 11:06:28;;;;;;;8.90;4.95;;;;;;;19.66;38.88;100756.81;5050239;28;20111;-72
2021/01/09 11:08:54;;;;;;;6.65;5.38;;;;;;;19.65;38.68;100755.06;5041764;28;20087;-75
2021/01/09 11:11:22;;;;;;;7.68;5.55;;;;;;;19.64;38.74;100762.09;5030073;28;20112;-75
2021/01/09 11:13:48;;;;;;;7.25;4.50;;;;;;;19.65;38.89;100755.06;5030308;28;20464;-72
2021/01/09 11:16:21;;;;;;;7.88;5.65;;;;;;;19.63;38.78;100755.09;5030281;28;20037;-73
2021/01/09 11:18:47;;;;;;;7.82;5.47;;;;;;;19.65;38.63;100747.16;5049183;28;20134;-77
2021/01/09 11:21:14;;;;;;;8.63;4.90;;;;;;;19.65;38.67;100755.06;5049612;28;20037;-76
2021/01/09 11:23:42;;;;;;;7.30;4.90;;;;;;;19.65;38.59;100755.94;5049836;28;20052;-75
2021/01/09 11:26:20;;;;;;;7.60;5.18;;;;;;;19.66;38.58;100762.94;5049502;28;20037;-71